Terminal Aerodrome Forecast
Issued by NWS Omaha/Valley, NE

Home | Current Version | Previous Version | Graphics & Text | Print | Product List | Glossary On
Versions: 1 2 3 4 5 6 7 8 9 10 11 12 13 14 15 16 17 18 19 20 21 22 23 24 25 26 27 28 29 30 31 32 33
000
FTUS43 KOAX 200402 AAC
TAFOFK
TAF AMD
KOFK 200402Z 2004/2024 18012KT P6SM SCT030 BKN150
      TEMPO 2005/2007 VRB15G25KT 3SM TSRA BKN030CB
     FM200800 25007KT P6SM -SHRA BKN050
      TEMPO 2008/2011 4SM TSRA BKN030CB
     FM201100 30010KT P6SM SCT030 BKN250
     FM201600 32011KT P6SM SCT100=

USA.gov is the U.S. government's official web portal to all federal, state and local government web resources and services.